Terminal Aerodrome Forecast
Issued by NWS Twin Cities, MN

Home | Current Version | Previous Version | Text Only | Print | Product List | Glossary Off
Versions: 1 2 3 4 5 6 7 8 9 10 11 12 13 14 15 16

000
FTUS43 KMPX 212300
TAFEAU
TAF
KEAU 212337Z 2200/2224 31016G23KT P6SM SKC
     FM220300 33009KT P6SM SKC
     FM220600 32006KT P6SM SKC
     FM221800 35009KT P6SM SCT250=

USA.gov is the U.S. government's official web portal to all federal, state and local government web resources and services.